createdAt,value
2019-05-23T00:00:16.705Z,19.60
2019-05-23T00:03:05.955Z,19.60
2019-05-23T00:06:04.456Z,19.60
2019-05-23T00:08:52.997Z,19.50
2019-05-23T00:11:45.022Z,19.50
2019-05-23T00:14:40.078Z,19.50
2019-05-23T00:17:11.577Z,19.50
2019-05-23T00:19:42.270Z,19.50
2019-05-23T00:22:13.162Z,19.50
2019-05-23T00:24:43.252Z,19.50
2019-05-23T00:27:14.633Z,19.50
2019-05-23T00:29:45.146Z,19.50
2019-05-23T00:32:21.861Z,19.40
2019-05-23T00:34:54.066Z,19.40
2019-05-23T00:37:23.791Z,19.40
2019-05-23T00:39:54.311Z,19.40
2019-05-23T00:42:25.637Z,19.40
2019-05-23T00:44:56.017Z,19.40
2019-05-23T00:47:25.719Z,19.40
2019-05-23T00:49:56.442Z,19.40
2019-05-23T00:52:26.194Z,19.40
2019-05-23T00:54:55.881Z,19.30
2019-05-23T00:57:27.778Z,19.30
2019-05-23T00:59:58.546Z,19.30
2019-05-23T01:02:28.194Z,19.30
2019-05-23T01:04:58.691Z,19.30
2019-05-23T01:07:29.280Z,19.30
2019-05-23T01:09:59.722Z,19.30
2019-05-23T01:12:29.361Z,19.30
2019-05-23T01:14:59.015Z,19.30
2019-05-23T01:17:29.321Z,19.30
2019-05-23T01:20:00.570Z,19.30
2019-05-23T01:22:30.262Z,19.20
2019-05-23T01:24:59.886Z,19.20
2019-05-23T01:27:31.005Z,19.20
2019-05-23T01:30:00.706Z,19.20
2019-05-23T01:32:38.798Z,19.20
2019-05-23T01:35:09.919Z,19.20
2019-05-23T01:37:41.177Z,19.10
2019-05-23T01:40:11.178Z,19.10
2019-05-23T01:42:42.609Z,19.10
2019-05-23T01:45:13.953Z,19.10
2019-05-23T01:47:45.232Z,19.10
2019-05-23T01:50:15.784Z,19.10
2019-05-23T01:52:45.369Z,19.10
2019-05-23T01:55:15.962Z,19.10
2019-05-23T01:57:45.767Z,19.10
2019-05-23T02:00:18.239Z,19.10
2019-05-23T02:02:49.495Z,19.10
2019-05-23T02:05:20.619Z,19.00
2019-05-23T02:07:51.062Z,19.00
2019-05-23T02:10:20.764Z,19.00
2019-05-23T02:12:51.787Z,19.00
2019-05-23T02:15:23.072Z,19.00
2019-05-23T02:17:54.171Z,19.00
2019-05-23T02:20:25.093Z,19.00
2019-05-23T02:22:56.378Z,18.90
2019-05-23T02:25:38.124Z,18.90
2019-05-23T02:28:08.770Z,18.90
2019-05-23T02:30:38.480Z,18.90
2019-05-23T02:33:09.845Z,18.90
2019-05-23T02:35:41.148Z,18.90
2019-05-23T02:38:28.312Z,18.90
2019-05-23T02:41:17.152Z,18.90
2019-05-23T02:43:49.379Z,18.90
2019-05-23T02:46:34.639Z,18.90
2019-05-23T02:49:04.602Z,18.80
2019-05-23T02:51:35.624Z,18.80
2019-05-23T02:54:07.714Z,18.80
2019-05-23T02:56:39.077Z,18.80
2019-05-23T02:59:45.701Z,18.80
2019-05-23T03:02:59.125Z,18.80
2019-05-23T03:05:28.985Z,18.70
2019-05-23T03:08:01.001Z,18.70
2019-05-23T03:10:50.319Z,18.70
2019-05-23T03:13:20.845Z,18.70
2019-05-23T03:15:52.106Z,18.70
2019-05-23T03:18:21.796Z,18.70
2019-05-23T03:20:52.896Z,18.70
2019-05-23T03:23:24.185Z,18.70
2019-05-23T03:26:35.210Z,18.70
2019-05-23T03:29:06.600Z,18.70
2019-05-23T03:31:42.931Z,18.60
2019-05-23T03:34:12.653Z,18.60
2019-05-23T03:36:43.327Z,18.60
2019-05-23T03:39:14.755Z,18.60
2019-05-23T03:41:44.426Z,18.60
2019-05-23T03:44:15.925Z,18.60
2019-05-23T03:46:49.449Z,18.60
2019-05-23T03:49:21.425Z,18.60
2019-05-23T03:51:52.897Z,18.60
2019-05-23T03:54:22.830Z,18.60
2019-05-23T03:56:54.224Z,18.60
2019-05-23T03:59:27.348Z,18.60
2019-05-23T04:01:57.815Z,18.60
2019-05-23T04:04:28.302Z,18.50
2019-05-23T04:06:59.639Z,18.50
2019-05-23T04:09:29.383Z,18.50
2019-05-23T04:11:59.702Z,18.50
2019-05-23T04:14:29.440Z,18.50
2019-05-23T04:16:59.187Z,18.50
2019-05-23T04:19:28.928Z,18.50
2019-05-23T04:21:59.304Z,18.50
2019-05-23T04:24:29.077Z,18.50
2019-05-23T04:26:58.779Z,18.50
2019-05-23T04:29:28.427Z,18.50
2019-05-23T04:32:07.901Z,18.40
2019-05-23T04:34:32.632Z,18.50
2019-05-23T04:37:02.428Z,18.50
2019-05-23T04:39:33.819Z,18.50
2019-05-23T04:42:03.584Z,18.50
2019-05-23T04:44:34.269Z,18.40
2019-05-23T04:47:08.778Z,18.40
2019-05-23T04:49:38.603Z,18.40
2019-05-23T04:52:09.307Z,18.40
2019-05-23T04:54:40.238Z,18.40
2019-05-23T04:57:10.071Z,18.40
2019-05-23T04:59:40.057Z,18.40
2019-05-23T05:02:25.362Z,18.40
2019-05-23T05:04:46.479Z,18.40
2019-05-23T05:07:16.345Z,18.40
2019-05-23T05:09:46.742Z,18.40
2019-05-23T05:12:17.959Z,18.40
2019-05-23T05:14:48.939Z,18.40
2019-05-23T05:17:18.743Z,18.40
2019-05-23T05:19:48.522Z,18.40
2019-05-23T05:22:18.392Z,18.40
2019-05-23T05:24:48.166Z,18.40
2019-05-23T05:27:19.661Z,18.40
2019-05-23T05:29:49.427Z,18.40
2019-05-23T05:32:20.962Z,18.40
2019-05-23T05:34:50.661Z,18.40
2019-05-23T05:37:20.711Z,18.40
2019-05-23T05:39:52.443Z,18.40
2019-05-23T05:42:23.168Z,18.40
2019-05-23T05:44:53.370Z,18.40
2019-05-23T05:47:23.354Z,18.40
2019-05-23T05:49:53.436Z,18.40
2019-05-23T05:52:28.397Z,18.40
2019-05-23T05:55:01.675Z,18.40
2019-05-23T05:57:31.607Z,18.40
2019-05-23T06:00:03.851Z,18.40
2019-05-23T06:02:33.893Z,18.40
2019-05-23T06:05:03.715Z,18.40
2019-05-23T06:07:38.417Z,18.40
2019-05-23T06:10:11.251Z,18.40
2019-05-23T06:12:43.096Z,18.40
2019-05-23T06:15:13.074Z,18.40
2019-05-23T06:17:45.914Z,18.40
2019-05-23T06:20:15.658Z,18.40
2019-05-23T06:22:46.785Z,18.40
2019-05-23T06:25:16.712Z,18.40
2019-05-23T06:27:47.130Z,18.30
2019-05-23T06:30:17.291Z,18.40
2019-05-23T06:32:47.134Z,18.40
2019-05-23T06:35:16.908Z,18.40
2019-05-23T06:37:46.662Z,18.30
2019-05-23T06:40:17.877Z,18.40
2019-05-23T06:42:50.554Z,18.40
2019-05-23T06:45:22.858Z,18.40
2019-05-23T06:47:53.697Z,18.40
2019-05-23T06:50:24.503Z,18.40
2019-05-23T06:52:54.194Z,18.40
2019-05-23T06:55:23.906Z,18.40
2019-05-23T06:57:53.923Z,18.50
2019-05-23T07:00:27.528Z,18.50
2019-05-23T07:02:57.291Z,18.50
2019-05-23T07:05:32.370Z,18.50
2019-05-23T07:08:02.756Z,18.50
2019-05-23T07:10:33.000Z,18.50
2019-05-23T07:13:02.941Z,18.50
2019-05-23T07:15:32.652Z,18.50
2019-05-23T07:18:04.286Z,18.50
2019-05-23T07:20:34.040Z,18.60
2019-05-23T07:23:03.755Z,18.60
2019-05-23T07:25:33.464Z,18.60
2019-05-23T07:28:03.121Z,18.60
2019-05-23T07:30:32.825Z,18.60
2019-05-23T07:33:04.373Z,18.70
2019-05-23T07:35:34.018Z,18.70
2019-05-23T07:38:03.672Z,18.70
2019-05-23T07:40:33.442Z,18.70
2019-05-23T07:43:04.563Z,18.70
2019-05-23T07:45:40.706Z,18.80
2019-05-23T07:48:10.352Z,18.80
2019-05-23T07:50:41.446Z,18.80
2019-05-23T07:53:14.102Z,18.80
2019-05-23T07:55:46.250Z,18.80
2019-05-23T07:58:16.671Z,18.80
2019-05-23T08:00:52.268Z,18.90
2019-05-23T08:03:22.439Z,18.90
2019-05-23T08:05:52.227Z,18.90
2019-05-23T08:08:22.071Z,18.90
2019-05-23T08:10:51.734Z,18.90
2019-05-23T08:13:21.639Z,18.90
2019-05-23T08:15:53.101Z,19.00
2019-05-23T08:18:24.090Z,19.00
2019-05-23T08:20:54.043Z,19.00
2019-05-23T08:23:24.115Z,19.00
2019-05-23T08:25:53.854Z,19.10
2019-05-23T08:28:24.338Z,19.10
2019-05-23T08:30:55.083Z,19.10
2019-05-23T08:33:28.478Z,19.10
2019-05-23T08:36:00.467Z,19.20
2019-05-23T08:38:30.326Z,19.20
2019-05-23T08:41:00.538Z,19.20
2019-05-23T08:43:30.993Z,19.30
2019-05-23T08:46:01.894Z,19.30
2019-05-23T08:48:31.795Z,19.30
2019-05-23T08:51:01.804Z,19.40
2019-05-23T08:53:33.492Z,19.40
2019-05-23T08:56:17.540Z,19.50
2019-05-23T08:58:35.782Z,19.50
2019-05-23T09:01:07.316Z,19.50
2019-05-23T09:03:38.767Z,19.60
2019-05-23T09:06:09.039Z,19.60
2019-05-23T09:08:40.255Z,19.70
2019-05-23T09:11:11.647Z,19.70
2019-05-23T09:13:41.667Z,19.70
2019-05-23T09:16:12.035Z,19.70
2019-05-23T09:18:42.144Z,19.70
2019-05-23T09:21:13.160Z,19.80
2019-05-23T09:23:42.904Z,18.90
2019-05-23T09:26:13.901Z,19.80
2019-05-23T09:28:44.289Z,19.90
2019-05-23T09:31:14.987Z,19.90
2019-05-23T09:33:45.146Z,19.90
2019-05-23T09:36:15.774Z,19.90
2019-05-23T09:38:45.780Z,19.90
2019-05-23T09:41:15.622Z,20.00
2019-05-23T09:43:46.326Z,20.00
2019-05-23T09:46:16.208Z,20.00
2019-05-23T09:48:46.122Z,20.00
2019-05-23T09:51:15.823Z,20.10
2019-05-23T09:53:47.445Z,20.10
2019-05-23T09:56:18.060Z,20.10
2019-05-23T09:58:48.187Z,19.20
2019-05-23T10:01:19.118Z,20.20
2019-05-23T10:03:48.888Z,20.20
2019-05-23T10:06:18.602Z,20.20
2019-05-23T10:08:49.889Z,20.20
2019-05-23T10:11:21.227Z,20.20
2019-05-23T10:13:50.822Z,20.30
2019-05-23T10:16:20.576Z,20.30
2019-05-23T10:18:50.247Z,20.30
2019-05-23T10:21:19.944Z,20.30
2019-05-23T10:23:49.609Z,20.40
2019-05-23T10:26:19.968Z,20.40
2019-05-23T10:28:49.586Z,20.50
2019-05-23T10:31:20.304Z,20.50
2019-05-23T10:33:50.084Z,20.50
2019-05-23T10:36:19.891Z,20.50
2019-05-23T10:38:49.594Z,20.50
2019-05-23T10:41:19.281Z,20.50
2019-05-23T10:43:48.946Z,20.50
2019-05-23T10:46:18.668Z,20.60
2019-05-23T10:48:48.324Z,20.60
2019-05-23T10:51:17.969Z,20.60
2019-05-23T10:53:47.624Z,20.60
2019-05-23T10:56:20.546Z,20.60
2019-05-23T10:58:49.190Z,20.70
2019-05-23T11:01:19.546Z,20.70
2019-05-23T11:03:49.141Z,20.70
2019-05-23T11:06:19.536Z,20.70
2019-05-23T11:08:49.140Z,20.70
2019-05-23T11:11:18.792Z,20.70
2019-05-23T11:13:49.374Z,20.80
2019-05-23T11:16:19.337Z,20.80
2019-05-23T11:18:48.878Z,20.80
2019-05-23T11:21:18.551Z,20.80
2019-05-23T11:23:51.699Z,20.80
2019-05-23T11:26:21.259Z,20.90
2019-05-23T11:28:50.875Z,20.90
2019-05-23T11:31:22.418Z,20.80
2019-05-23T11:33:52.055Z,20.90
2019-05-23T11:36:34.809Z,20.90
2019-05-23T11:38:52.991Z,20.90
2019-05-23T11:41:22.535Z,20.90
2019-05-23T11:43:53.002Z,20.90
2019-05-23T11:46:35.458Z,20.90
2019-05-23T11:49:05.294Z,20.90
2019-05-23T11:51:35.666Z,20.90
2019-05-23T11:54:08.933Z,21.00
2019-05-23T11:56:38.568Z,21.00
2019-05-23T11:59:08.268Z,21.00
2019-05-23T12:01:47.337Z,21.00
2019-05-23T12:04:18.714Z,21.00
2019-05-23T12:07:06.332Z,21.00
2019-05-23T12:09:35.978Z,21.00
2019-05-23T12:12:05.669Z,21.00
2019-05-23T12:14:35.329Z,21.00
2019-05-23T12:17:05.479Z,21.00
2019-05-23T12:19:35.077Z,21.00
2019-05-23T12:22:04.899Z,21.10
2019-05-23T12:24:35.786Z,21.10
2019-05-23T12:27:05.814Z,21.00
2019-05-23T12:29:35.466Z,21.10
2019-05-23T12:32:08.504Z,21.10
2019-05-23T12:34:38.099Z,21.10
2019-05-23T12:37:19.048Z,21.10
2019-05-23T12:39:39.210Z,21.10
2019-05-23T12:42:08.838Z,21.10
2019-05-23T12:44:38.472Z,21.10
2019-05-23T12:47:12.613Z,21.20
2019-05-23T12:49:46.940Z,21.20
2019-05-23T12:52:16.568Z,21.20
2019-05-23T12:54:47.892Z,21.20
2019-05-23T12:57:17.701Z,21.20
2019-05-23T12:59:47.431Z,21.20
2019-05-23T13:02:21.991Z,21.20
2019-05-23T13:04:51.690Z,21.20
2019-05-23T13:07:35.714Z,21.20
2019-05-23T13:09:54.209Z,21.20
2019-05-23T13:12:24.026Z,21.20
2019-05-23T13:14:58.489Z,21.20
2019-05-23T13:17:24.885Z,21.20
2019-05-23T13:19:54.478Z,21.20
2019-05-23T13:22:24.339Z,21.30
2019-05-23T13:24:54.023Z,21.30
2019-05-23T13:27:23.747Z,21.30
2019-05-23T13:29:53.418Z,21.30
2019-05-23T13:32:23.124Z,21.30
2019-05-23T13:34:52.934Z,21.30
2019-05-23T13:37:22.615Z,21.30
2019-05-23T13:39:52.258Z,21.30
2019-05-23T13:42:21.952Z,21.30
2019-05-23T13:44:51.770Z,21.30
2019-05-23T13:47:21.459Z,21.40
2019-05-23T13:49:51.055Z,21.30
2019-05-23T13:52:20.751Z,21.30
2019-05-23T13:54:50.459Z,21.40
2019-05-23T13:57:20.328Z,21.40
2019-05-23T13:59:49.997Z,21.40
2019-05-23T14:02:19.658Z,21.40
2019-05-23T14:04:49.284Z,21.40
2019-05-23T14:07:20.177Z,21.40
2019-05-23T14:09:49.803Z,21.40
2019-05-23T14:12:21.629Z,21.40
2019-05-23T14:14:51.661Z,21.40
2019-05-23T14:17:29.988Z,21.40
2019-05-23T14:19:59.636Z,21.40
2019-05-23T14:22:31.113Z,21.40
2019-05-23T14:25:00.784Z,21.40
2019-05-23T14:27:51.976Z,21.40
2019-05-23T14:30:39.773Z,21.50
2019-05-23T14:33:20.917Z,21.50
2019-05-23T14:35:52.337Z,21.50
2019-05-23T14:38:30.662Z,21.50
2019-05-23T14:40:53.471Z,21.50
2019-05-23T14:43:25.553Z,21.50
2019-05-23T14:46:05.721Z,21.50
2019-05-23T14:48:59.395Z,21.60
2019-05-23T14:51:57.454Z,21.50
2019-05-23T14:54:48.941Z,21.60
2019-05-23T14:57:19.630Z,21.50
2019-05-23T14:59:49.420Z,21.50
2019-05-23T15:02:20.923Z,21.60
2019-05-23T15:04:50.488Z,21.60
2019-05-23T15:07:20.911Z,21.60
2019-05-23T15:09:50.502Z,21.60
2019-05-23T15:12:20.112Z,21.60
2019-05-23T15:14:49.712Z,21.60
2019-05-23T15:17:19.476Z,21.60
2019-05-23T15:19:50.805Z,21.70
2019-05-23T15:22:20.451Z,21.70
2019-05-23T15:24:50.114Z,21.70
2019-05-23T15:27:20.514Z,21.70
2019-05-23T15:29:50.099Z,21.70
2019-05-23T15:32:19.874Z,21.70
2019-05-23T15:34:49.539Z,21.70
2019-05-23T15:37:19.492Z,21.70
2019-05-23T15:39:49.087Z,21.70
2019-05-23T15:42:18.742Z,21.70
2019-05-23T15:44:48.416Z,21.70
2019-05-23T15:47:19.702Z,21.70
2019-05-23T15:49:51.623Z,21.80
2019-05-23T15:52:39.028Z,21.80
2019-05-23T15:55:17.264Z,21.80
2019-05-23T15:57:52.145Z,21.80
2019-05-23T16:00:43.985Z,21.80
2019-05-23T16:03:20.313Z,21.80
2019-05-23T16:05:50.023Z,21.80
2019-05-23T16:08:19.784Z,21.80
2019-05-23T16:10:49.352Z,21.80
2019-05-23T16:13:21.441Z,21.80
2019-05-23T16:15:51.033Z,21.80
2019-05-23T16:18:20.764Z,21.80
2019-05-23T16:20:50.507Z,21.90
2019-05-23T16:23:20.294Z,21.80
2019-05-23T16:25:49.924Z,21.90
2019-05-23T16:28:19.553Z,21.90
2019-05-23T16:30:50.284Z,21.90
2019-05-23T16:33:19.866Z,21.90
2019-05-23T16:35:49.533Z,21.90
2019-05-23T16:38:19.139Z,21.90
2019-05-23T16:40:48.780Z,21.90
2019-05-23T16:43:18.479Z,21.90
2019-05-23T16:45:48.133Z,21.90
2019-05-23T16:48:19.178Z,22.00
2019-05-23T16:50:48.906Z,21.90
2019-05-23T16:53:18.515Z,21.90
2019-05-23T16:55:54.593Z,22.00
2019-05-23T16:58:36.130Z,22.00
2019-05-23T17:01:29.431Z,22.00
2019-05-23T17:04:21.441Z,22.00
2019-05-23T17:06:57.259Z,21.90
2019-05-23T17:10:06.054Z,21.90
2019-05-23T17:12:39.329Z,21.90
2019-05-23T17:15:23.762Z,22.00
2019-05-23T17:18:12.491Z,21.90
2019-05-23T17:20:56.558Z,22.00
2019-05-23T17:23:45.253Z,22.00
2019-05-23T17:26:27.488Z,22.00
2019-05-23T17:28:57.121Z,22.00
2019-05-23T17:31:32.091Z,22.00
2019-05-23T17:34:01.717Z,22.00
2019-05-23T17:36:31.395Z,22.00
2019-05-23T17:39:00.985Z,22.00
2019-05-23T17:41:32.383Z,22.00
2019-05-23T17:44:01.993Z,22.00
2019-05-23T17:46:32.525Z,22.10
2019-05-23T17:49:02.261Z,22.10
2019-05-23T17:51:31.932Z,22.10
2019-05-23T17:54:01.542Z,22.10
2019-05-23T17:56:31.313Z,22.10
2019-05-23T17:59:00.913Z,22.10
2019-05-23T18:01:32.066Z,22.10
2019-05-23T18:04:01.802Z,22.10
2019-05-23T18:06:31.520Z,22.10
2019-05-23T18:09:01.240Z,22.10
2019-05-23T18:11:31.238Z,22.10
2019-05-23T18:14:03.475Z,22.20
2019-05-23T18:16:33.140Z,22.20
2019-05-23T18:19:02.896Z,22.20
2019-05-23T18:21:32.802Z,22.10
2019-05-23T18:24:03.347Z,22.20
2019-05-23T18:26:33.396Z,22.20
2019-05-23T18:29:03.587Z,22.20
2019-05-23T18:31:34.968Z,22.20
2019-05-23T18:34:05.580Z,22.20
2019-05-23T18:36:36.093Z,22.20
2019-05-23T18:39:09.755Z,22.20
2019-05-23T18:41:39.473Z,22.10
2019-05-23T18:44:09.185Z,22.10
2019-05-23T18:46:43.426Z,22.10
2019-05-23T18:49:14.661Z,22.10
2019-05-23T18:51:45.291Z,22.10
2019-05-23T18:54:14.874Z,22.10
2019-05-23T18:56:44.534Z,22.10
2019-05-23T18:59:14.505Z,22.10
2019-05-23T19:01:44.102Z,22.00
2019-05-23T19:04:13.972Z,22.00
2019-05-23T19:06:44.296Z,22.00
2019-05-23T19:09:16.400Z,22.00
2019-05-23T19:11:47.788Z,22.00
2019-05-23T19:14:17.358Z,22.00
2019-05-23T19:16:47.136Z,22.00
2019-05-23T19:19:17.557Z,22.00
2019-05-23T19:21:47.202Z,22.00
2019-05-23T19:24:17.131Z,22.00
2019-05-23T19:26:47.340Z,21.90
2019-05-23T19:29:17.446Z,21.90
2019-05-23T19:31:47.139Z,21.90
2019-05-23T19:34:16.822Z,21.90
2019-05-23T19:36:46.664Z,21.90
2019-05-23T19:39:17.050Z,21.90
2019-05-23T19:41:46.658Z,21.90
2019-05-23T19:44:16.315Z,21.90
2019-05-23T19:46:46.068Z,21.90
2019-05-23T19:49:16.687Z,21.90
2019-05-23T19:51:46.374Z,21.90
2019-05-23T19:54:17.104Z,21.90
2019-05-23T19:56:48.356Z,21.80
2019-05-23T19:59:20.762Z,21.80
2019-05-23T20:02:07.158Z,21.80
2019-05-23T20:04:38.701Z,21.80
2019-05-23T20:07:09.585Z,21.80
2019-05-23T20:09:39.423Z,21.80
2019-05-23T20:12:09.380Z,21.80
2019-05-23T20:14:39.154Z,21.80
2019-05-23T20:17:08.803Z,21.80
2019-05-23T20:19:38.379Z,21.80
2019-05-23T20:22:08.047Z,21.70
2019-05-23T20:24:37.823Z,21.70
2019-05-23T20:27:07.414Z,21.70
2019-05-23T20:29:37.051Z,21.70
2019-05-23T20:32:08.016Z,21.70
2019-05-23T20:34:37.592Z,21.70
2019-05-23T20:37:07.345Z,21.70
2019-05-23T20:39:37.034Z,21.70
2019-05-23T20:42:11.784Z,21.70
2019-05-23T20:44:39.729Z,21.60
2019-05-23T20:47:09.335Z,21.60
2019-05-23T20:49:38.979Z,21.70
2019-05-23T20:52:09.579Z,21.60
2019-05-23T20:54:40.796Z,21.60
2019-05-23T20:57:11.530Z,21.60
2019-05-23T20:59:42.005Z,21.60
2019-05-23T21:02:11.769Z,21.60
2019-05-23T21:04:41.436Z,21.60
2019-05-23T21:07:11.724Z,21.60
2019-05-23T21:09:41.315Z,21.50
2019-05-23T21:12:28.440Z,21.60
2019-05-23T21:14:42.283Z,21.60
2019-05-23T21:17:11.961Z,21.50
2019-05-23T21:19:41.621Z,21.50
2019-05-23T21:22:11.270Z,21.50
2019-05-23T21:24:40.933Z,21.50
2019-05-23T21:27:10.559Z,21.50
2019-05-23T21:29:40.142Z,21.50
2019-05-23T21:32:09.878Z,21.50
2019-05-23T21:34:39.503Z,21.50
2019-05-23T21:37:09.108Z,21.50
2019-05-23T21:39:38.734Z,21.50
2019-05-23T21:42:08.452Z,21.40
2019-05-23T21:44:38.087Z,21.40
2019-05-23T21:47:07.815Z,21.40
2019-05-23T21:49:37.422Z,21.40
2019-05-23T21:52:07.216Z,21.40
2019-05-23T21:54:36.884Z,21.40
2019-05-23T21:57:06.567Z,21.40
2019-05-23T21:59:36.224Z,21.30
2019-05-23T22:02:15.284Z,21.40
2019-05-23T22:05:06.974Z,21.40
2019-05-23T22:07:36.702Z,21.40
2019-05-23T22:10:07.128Z,21.30
2019-05-23T22:12:36.786Z,21.30
2019-05-23T22:15:06.625Z,21.30
2019-05-23T22:17:36.336Z,21.30
2019-05-23T22:20:05.916Z,21.30
2019-05-23T22:22:35.495Z,21.30
2019-05-23T22:25:05.228Z,21.20
2019-05-23T22:27:34.978Z,21.30
2019-05-23T22:30:05.641Z,21.20
2019-05-23T22:32:36.660Z,21.20
2019-05-23T22:35:14.561Z,21.20
2019-05-23T22:37:44.354Z,21.20
2019-05-23T22:40:14.272Z,21.20
2019-05-23T22:42:44.026Z,21.20
2019-05-23T22:45:15.459Z,21.20
2019-05-23T22:47:45.520Z,21.20
2019-05-23T22:50:15.772Z,21.10
2019-05-23T22:52:45.692Z,21.10
2019-05-23T22:55:15.511Z,21.10
2019-05-23T22:57:45.313Z,21.10
2019-05-23T23:00:16.641Z,21.10
2019-05-23T23:02:46.615Z,21.10
2019-05-23T23:05:16.485Z,21.10
2019-05-23T23:07:54.249Z,21.00
2019-05-23T23:10:23.904Z,21.00
2019-05-23T23:12:53.544Z,21.10
2019-05-23T23:15:24.601Z,21.00
2019-05-23T23:17:55.906Z,21.10
2019-05-23T23:20:25.524Z,21.00
2019-05-23T23:22:55.179Z,21.00
2019-05-23T23:25:24.825Z,21.00
2019-05-23T23:27:54.436Z,21.00
2019-05-23T23:30:29.338Z,21.00
2019-05-23T23:32:59.058Z,21.00
2019-05-23T23:35:28.710Z,20.90
2019-05-23T23:37:58.317Z,20.90
2019-05-23T23:40:28.004Z,20.90
2019-05-23T23:42:57.707Z,20.90
2019-05-23T23:45:45.038Z,20.90
2019-05-23T23:48:32.617Z,20.90
2019-05-23T23:51:20.302Z,20.90
2019-05-23T23:54:07.952Z,20.90
2019-05-23T23:56:55.491Z,20.80
2019-05-23T23:59:24.319Z,20.80
